Time;durP1;ratioP1;P1;durP2;ratioP2;P2;SDS_P1;SDS_P2;PMS_P1;PMS_P2;Temp;Humidity;BMP_temperature;BMP_pressure;BME280_temperature;BME280_humidity;BME280_pressure;Samples;Min_cycle;Max_cycle;Signal;HPM_P1;HPM_P2
2021/08/08 00:00:54;;;;;;;49.60;45.78;;;;;;;15.82;100.00;100896.78;4999915;28;20045;-78
2021/08/08 00:03:21;;;;;;;47.90;44.40;;;;;;;16.16;100.00;100891.59;5011439;28;20384;-77
2021/08/08 00:05:48;;;;;;;44.85;41.65;;;;;;;16.46;100.00;100894.84;5005341;28;20054;-77
2021/08/08 00:08:19;;;;;;;52.05;48.55;;;;;;;16.52;100.00;100889.56;5002411;28;20132;-77
2021/08/08 00:10:47;;;;;;;51.85;47.95;;;;;;;16.11;100.00;100896.84;5004550;28;20101;-78
2021/08/08 00:13:13;;;;;;;51.20;47.50;;;;;;;15.73;100.00;100911.59;5008439;28;20116;-76
2021/08/08 00:15:40;;;;;;;49.92;46.10;;;;;;;16.05;100.00;100900.47;5005495;28;20046;-77
2021/08/08 00:18:07;;;;;;;47.33;43.92;;;;;;;15.68;100.00;100892.75;5005432;28;20475;-77
2021/08/08 00:20:35;;;;;;;49.92;46.20;;;;;;;15.97;100.00;100898.97;5002103;28;20054;-77
2021/08/08 00:23:02;;;;;;;53.97;50.08;;;;;;;16.05;100.00;100897.78;5006334;28;20453;-78
2021/08/08 00:25:31;;;;;;;58.03;53.72;;;;;;;15.98;100.00;100900.63;5006294;28;20050;-76
2021/08/08 00:27:57;;;;;;;62.20;58.00;;;;;;;15.97;100.00;100902.47;5005240;28;20053;-77
2021/08/08 00:30:24;;;;;;;63.90;59.53;;;;;;;16.03;100.00;100906.88;5005542;28;20054;-78
2021/08/08 00:32:51;;;;;;;59.90;55.70;;;;;;;16.01;100.00;100900.94;5005917;28;20181;-77
2021/08/08 00:35:19;;;;;;;46.67;43.15;;;;;;;15.90;100.00;100906.34;5008191;28;20503;-77
2021/08/08 00:37:47;;;;;;;49.88;45.88;;;;;;;15.54;100.00;100905.53;5008146;28;20053;-77
2021/08/08 00:40:15;;;;;;;46.80;42.83;;;;;;;15.77;100.00;100899.38;5004965;28;20410;-78
2021/08/08 00:42:46;;;;;;;39.92;36.42;;;;;;;15.89;100.00;100908.19;5004917;28;20462;-77
2021/08/08 00:45:15;;;;;;;39.65;36.45;;;;;;;15.96;100.00;100905.38;5003496;28;20046;-77
2021/08/08 00:47:42;;;;;;;43.13;39.72;;;;;;;15.80;100.00;100906.94;5005126;28;20051;-76
2021/08/08 00:50:10;;;;;;;44.53;41.03;;;;;;;15.54;100.00;100911.69;5004873;28;20395;-76
2021/08/08 00:52:37;;;;;;;44.67;41.10;;;;;;;15.02;100.00;100908.09;5001020;28;20116;-77
2021/08/08 00:55:04;;;;;;;49.97;46.17;;;;;;;15.37;100.00;100912.63;5003850;28;20135;-79
2021/08/08 00:57:31;;;;;;;47.90;44.10;;;;;;;15.22;100.00;100913.94;5004918;28;20054;-78
2021/08/08 00:59:59;;;;;;;48.47;44.47;;;;;;;15.17;100.00;100919.16;5006532;28;20050;-77
2021/08/08 01:02:27;;;;;;;48.33;44.42;;;;;;;14.96;100.00;100919.69;5005150;28;20057;-77
2021/08/08 01:04:59;;;;;;;49.60;45.50;;;;;;;15.44;100.00;100916.84;5004242;28;20546;-77
2021/08/08 01:07:32;;;;;;;46.95;43.35;;;;;;;15.33;100.00;100917.63;4999160;28;20073;-77
2021/08/08 01:10:02;;;;;;;45.88;42.38;;;;;;;15.35;100.00;100923.59;5005779;28;20116;-78
2021/08/08 01:12:29;;;;;;;42.55;38.83;;;;;;;15.31;100.00;100917.03;5004549;28;20061;-77
2021/08/08 01:14:59;;;;;;;43.28;39.88;;;;;;;15.28;100.00;100922.88;5004639;28;20054;-77
2021/08/08 01:17:27;;;;;;;44.13;40.53;;;;;;;15.30;100.00;100926.94;5006898;28;20128;-77
2021/08/08 01:19:59;;;;;;;45.85;41.95;;;;;;;15.22;100.00;100921.13;5006458;28;20115;-77
2021/08/08 01:22:29;;;;;;;49.95;45.95;;;;;;;14.53;100.00;100920.75;5009339;28;20131;-78
2021/08/08 01:24:58;;;;;;;48.78;44.72;;;;;;;15.06;100.00;100922.63;5004324;28;20058;-77
2021/08/08 01:27:26;;;;;;;47.38;43.42;;;;;;;15.48;100.00;100930.56;5004193;28;20054;-78
2021/08/08 01:29:54;;;;;;;44.55;41.05;;;;;;;15.65;100.00;100922.66;5000199;28;20479;-77
2021/08/08 01:32:21;;;;;;;50.08;45.97;;;;;;;15.34;100.00;100927.31;5006401;28;20057;-78
2021/08/08 01:34:49;;;;;;;49.20;45.47;;;;;;;15.43;100.00;100922.41;5003665;28;20511;-77
2021/08/08 01:37:17;;;;;;;46.50;42.60;;;;;;;14.76;100.00;100923.47;4998844;28;20055;-78
2021/08/08 01:39:47;;;;;;;53.38;49.17;;;;;;;14.98;100.00;100914.94;5003002;28;20054;-77
2021/08/08 01:42:17;;;;;;;49.88;46.08;;;;;;;15.40;100.00;100918.34;5000085;28;20046;-79
2021/08/08 01:44:48;;;;;;;60.70;56.30;;;;;;;14.85;100.00;100921.28;5006558;28;20128;-78
2021/08/08 01:47:18;;;;;;;52.30;48.40;;;;;;;15.08;100.00;100918.66;5006152;28;20109;-77
2021/08/08 01:49:46;;;;;;;43.67;40.13;;;;;;;14.58;100.00;100921.72;5003367;28;20554;-78
2021/08/08 01:52:13;;;;;;;43.00;39.53;;;;;;;14.76;100.00;100928.00;4997886;28;20101;-77
2021/08/08 01:54:40;;;;;;;42.28;38.42;;;;;;;14.87;100.00;100930.72;5003069;28;20058;-78
2021/08/08 01:57:09;;;;;;;44.08;39.97;;;;;;;15.10;100.00;100931.81;5004427;28;20050;-77
2021/08/08 01:59:37;;;;;;;42.90;39.50;;;;;;;15.22;100.00;100929.13;5005706;28;20474;-77
2021/08/08 02:02:12;;;;;;;41.63;37.97;;;;;;;14.95;100.00;100928.75;5159236;23;20056;-77
2021/08/08 02:04:40;;;;;;;44.95;41.35;;;;;;;14.61;100.00;100939.13;5073691;28;20048;-77
2021/08/08 02:07:09;;;;;;;52.50;48.20;;;;;;;14.95;100.00;100932.25;5073328;28;20052;-78
2021/08/08 02:09:37;;;;;;;42.42;38.92;;;;;;;14.86;100.00;100931.78;5070252;28;20536;-78
2021/08/08 02:12:04;;;;;;;43.90;40.20;;;;;;;14.77;100.00;100935.00;5064466;28;20048;-77
2021/08/08 02:14:31;;;;;;;46.30;42.28;;;;;;;14.82;100.00;100945.81;5072914;28;20049;-77
2021/08/08 02:17:00;;;;;;;46.20;42.30;;;;;;;14.48;100.00;100941.97;5064141;28;20130;-78
2021/08/08 02:19:27;;;;;;;45.72;41.92;;;;;;;14.56;100.00;100945.16;5073440;28;20477;-77
2021/08/08 02:21:54;;;;;;;42.95;39.20;;;;;;;14.76;100.00;100946.72;5069848;28;20064;-77
2021/08/08 02:24:21;;;;;;;41.00;37.33;;;;;;;14.38;100.00;100945.16;5064868;28;20209;-77
2021/08/08 02:26:47;;;;;;;43.22;39.50;;;;;;;14.66;100.00;100945.41;5061925;28;20385;-78
2021/08/08 02:29:14;;;;;;;42.28;38.67;;;;;;;14.75;100.00;100950.44;5062779;28;20074;-77
2021/08/08 02:31:45;;;;;;;41.50;37.95;;;;;;;14.79;100.00;100949.75;5073263;28;20102;-78
2021/08/08 02:34:13;;;;;;;46.33;42.42;;;;;;;14.72;100.00;100950.91;5065995;28;20056;-78
2021/08/08 02:36:41;;;;;;;38.65;35.33;;;;;;;14.87;100.00;100954.78;5057010;28;20146;-78
2021/08/08 02:39:07;;;;;;;45.78;42.05;;;;;;;14.93;100.00;100954.94;5064876;28;20041;-78
2021/08/08 02:41:34;;;;;;;47.10;42.92;;;;;;;14.86;100.00;100957.72;5063638;28;20118;-77
2021/08/08 02:44:01;;;;;;;46.50;42.35;;;;;;;14.59;100.00;100963.41;5064384;28;20056;-77
2021/08/08 02:46:28;;;;;;;41.40;37.90;;;;;;;14.94;100.00;100967.25;5072998;28;20362;-77
2021/08/08 02:48:55;;;;;;;42.20;38.78;;;;;;;15.05;100.00;100977.16;5072076;28;20435;-78
2021/08/08 02:51:23;;;;;;;42.65;39.05;;;;;;;14.92;100.00;100980.03;5071636;28;20577;-77
2021/08/08 02:53:49;;;;;;;53.65;49.55;;;;;;;15.14;100.00;100985.69;5063560;28;20377;-77
2021/08/08 02:56:16;;;;;;;41.22;37.80;;;;;;;15.06;100.00;100989.50;5061755;28;20056;-78
2021/08/08 02:58:43;;;;;;;46.38;42.78;;;;;;;15.09;100.00;100997.06;5072399;28;20102;-77
2021/08/08 03:01:11;;;;;;;53.53;49.30;;;;;;;14.68;100.00;101006.69;5060942;28;20106;-78
2021/08/08 03:03:38;;;;;;;54.78;50.67;;;;;;;14.87;100.00;101010.13;5067546;28;20087;-77
2021/08/08 03:06:09;;;;;;;45.50;42.00;;;;;;;14.74;100.00;101004.97;5054234;28;20091;-77
2021/08/08 03:08:39;;;;;;;48.05;44.35;;;;;;;14.81;100.00;101011.03;5073073;28;20201;-77
2021/08/08 03:11:05;;;;;;;37.00;33.72;;;;;;;14.64;100.00;101010.84;5075504;28;20053;-78
2021/08/08 03:13:32;;;;;;;36.40;33.20;;;;;;;14.61;100.00;101012.13;5071300;28;20052;-77
2021/08/08 03:15:59;;;;;;;34.70;31.70;;;;;;;14.63;100.00;101018.06;5062704;28;20540;-76
2021/08/08 03:18:26;;;;;;;36.97;34.05;;;;;;;14.61;100.00;101016.63;5069915;28;20122;-77
2021/08/08 03:20:52;;;;;;;32.90;29.90;;;;;;;14.18;100.00;101017.53;5060269;28;20049;-77
2021/08/08 03:23:20;;;;;;;39.30;35.90;;;;;;;14.43;100.00;101028.13;5075248;28;20056;-77
2021/08/08 03:25:48;;;;;;;36.83;33.60;;;;;;;14.70;100.00;101028.66;5076173;28;20463;-76
2021/08/08 03:28:15;;;;;;;36.00;32.90;;;;;;;14.38;100.00;101036.84;5066779;28;20449;-77
2021/08/08 03:30:41;;;;;;;37.13;33.92;;;;;;;14.02;100.00;101036.81;5071493;28;20060;-76
2021/08/08 03:33:08;;;;;;;34.88;31.77;;;;;;;14.38;100.00;101041.38;5071378;28;20064;-77
2021/08/08 03:35:35;;;;;;;35.17;32.17;;;;;;;14.58;100.00;101043.81;5062424;28;20053;-77
2021/08/08 03:38:02;;;;;;;36.78;33.67;;;;;;;14.44;100.00;101045.81;5067601;28;20370;-77
2021/08/08 03:40:29;;;;;;;36.55;33.33;;;;;;;14.54;100.00;101048.81;5066597;28;20128;-77
2021/08/08 03:42:57;;;;;;;36.75;33.38;;;;;;;14.76;100.00;101049.13;5071171;28;20057;-77
2021/08/08 03:45:24;;;;;;;38.75;35.45;;;;;;;14.48;100.00;101052.34;5070471;28;20461;-77
2021/08/08 03:47:51;;;;;;;39.20;35.80;;;;;;;14.76;100.00;101053.66;5064474;28;20049;-78
2021/08/08 03:50:17;;;;;;;39.83;36.63;;;;;;;14.61;100.00;101059.41;5064582;28;20045;-77
2021/08/08 03:52:44;;;;;;;38.33;35.05;;;;;;;14.92;100.00;101061.09;5069828;28;20060;-77
2021/08/08 03:55:12;;;;;;;38.28;34.80;;;;;;;14.77;100.00;101049.97;5069416;28;20049;-76
2021/08/08 03:57:38;;;;;;;37.20;34.00;;;;;;;15.01;100.00;101057.06;5070511;28;20448;-77
2021/08/08 04:00:08;;;;;;;37.95;34.78;;;;;;;15.08;100.00;101052.41;5073254;28;20212;-77
2021/08/08 04:02:35;;;;;;;35.80;32.72;;;;;;;15.42;100.00;101058.09;5066673;28;20075;-77
2021/08/08 04:05:02;;;;;;;36.25;33.25;;;;;;;15.53;100.00;101060.00;5076064;28;20565;-76
2021/08/08 04:07:28;;;;;;;37.40;34.17;;;;;;;15.82;100.00;101062.03;5069498;28;20415;-76
2021/08/08 04:09:55;;;;;;;35.78;32.80;;;;;;;15.83;100.00;101069.84;5064761;28;20048;-77
2021/08/08 04:12:22;;;;;;;35.17;32.20;;;;;;;15.73;100.00;101070.41;5071130;28;20052;-78
2021/08/08 04:14:48;;;;;;;32.85;30.08;;;;;;;15.96;100.00;101071.47;5073080;28;20059;-77
2021/08/08 04:17:17;;;;;;;31.80;29.23;;;;;;;16.03;100.00;101070.28;5066242;28;20370;-76
2021/08/08 04:19:43;;;;;;;31.95;29.45;;;;;;;16.27;100.00;101068.41;5075763;28;20044;-77
2021/08/08 04:22:10;;;;;;;33.38;30.48;;;;;;;16.40;100.00;101056.63;5074186;28;20082;-76
2021/08/08 04:24:37;;;;;;;36.65;33.75;;;;;;;16.48;100.00;101064.28;5072931;28;20137;-77
2021/08/08 04:27:04;;;;;;;39.33;36.22;;;;;;;16.54;100.00;101064.41;5064048;28;20049;-77
2021/08/08 04:29:31;;;;;;;36.53;33.42;;;;;;;16.75;100.00;101063.75;5064188;28;20041;-76
2021/08/08 04:31:58;;;;;;;33.88;31.00;;;;;;;16.66;100.00;101065.19;5065574;28;20546;-77
2021/08/08 04:34:29;;;;;;;35.15;31.83;;;;;;;16.74;100.00;101067.50;5065039;28;20121;-77
2021/08/08 04:36:56;;;;;;;38.28;35.45;;;;;;;17.00;100.00;101068.81;5071879;28;20075;-77
2021/08/08 04:39:23;;;;;;;34.72;32.03;;;;;;;16.91;100.00;101067.56;5066148;28;20159;-78
2021/08/08 04:41:51;;;;;;;35.10;32.08;;;;;;;17.20;100.00;101071.06;5063982;28;20060;-77
2021/08/08 04:44:18;;;;;;;31.45;29.08;;;;;;;17.14;100.00;101074.72;5065563;28;20048;-77
2021/08/08 04:46:45;;;;;;;37.10;34.10;;;;;;;17.39;100.00;101077.03;5063720;28;20481;-77
2021/08/08 04:49:12;;;;;;;34.72;32.35;;;;;;;17.55;100.00;101075.41;5074881;28;20374;-77
2021/08/08 04:51:40;;;;;;;32.45;30.05;;;;;;;17.56;100.00;101079.75;5073282;28;20518;-77
2021/08/08 04:54:08;;;;;;;33.42;30.30;;;;;;;17.76;100.00;101074.72;5066595;28;20044;-77
2021/08/08 04:56:35;;;;;;;33.63;31.00;;;;;;;17.89;100.00;101070.09;5074323;28;20048;-77
2021/08/08 04:59:02;;;;;;;30.10;27.70;;;;;;;18.10;100.00;101079.28;5074979;28;20044;-77
2021/08/08 05:01:29;;;;;;;32.90;30.15;;;;;;;18.13;100.00;101073.41;5063208;28;20056;-77
2021/08/08 05:03:56;;;;;;;32.53;30.13;;;;;;;18.24;100.00;101080.53;5062770;28;20063;-77
2021/08/08 05:06:23;;;;;;;30.45;27.98;;;;;;;18.39;100.00;101082.59;5073678;28;20063;-77
2021/08/08 05:08:51;;;;;;;29.83;27.42;;;;;;;18.53;100.00;101082.00;5065506;28;20448;-77
2021/08/08 05:11:18;;;;;;;31.13;29.02;;;;;;;18.53;100.00;101087.38;5074351;28;20121;-78
2021/08/08 05:13:44;;;;;;;30.80;28.60;;;;;;;18.64;100.00;101082.94;5073787;28;20456;-77
2021/08/08 05:16:11;;;;;;;30.20;27.80;;;;;;;18.85;100.00;101081.34;5074254;28;20048;-77
2021/08/08 05:18:38;;;;;;;30.83;28.42;;;;;;;18.98;100.00;101078.25;5064625;28;20056;-77
2021/08/08 05:21:05;;;;;;;33.22;30.35;;;;;;;19.12;100.00;101072.44;5072504;28;20476;-77
2021/08/08 05:23:31;;;;;;;30.27;28.08;;;;;;;19.38;100.00;101071.63;5074675;28;20057;-78
2021/08/08 05:26:02;;;;;;;31.83;29.60;;;;;;;19.71;100.00;101074.34;5062460;28;20572;-77
2021/08/08 05:28:29;;;;;;;30.02;27.92;;;;;;;19.68;100.00;101076.50;5062516;28;20478;-77
2021/08/08 05:30:56;;;;;;;29.60;27.20;;;;;;;19.87;100.00;101076.09;5064630;28;20469;-77
2021/08/08 05:33:22;;;;;;;30.35;27.83;;;;;;;20.02;100.00;101068.09;5064349;28;20455;-76
2021/08/08 05:35:51;;;;;;;28.95;26.95;;;;;;;20.20;100.00;101071.44;5057910;28;20053;-77
2021/08/08 05:38:17;;;;;;;29.58;27.30;;;;;;;20.34;100.00;101061.81;5072543;28;20117;-76
2021/08/08 05:40:44;;;;;;;30.85;28.65;;;;;;;20.51;100.00;101065.09;5063039;28;20052;-77
2021/08/08 05:43:12;;;;;;;29.92;27.63;;;;;;;20.68;100.00;101053.34;5072423;28;20546;-78
2021/08/08 05:45:41;;;;;;;30.95;28.73;;;;;;;20.83;100.00;101063.38;5072941;28;20531;-78
2021/08/08 05:48:08;;;;;;;29.25;27.33;;;;;;;20.99;100.00;101063.13;5073805;28;20052;-77
2021/08/08 05:50:35;;;;;;;29.85;27.65;;;;;;;21.05;100.00;101062.06;5074367;28;20121;-77
2021/08/08 05:53:02;;;;;;;27.98;25.95;;;;;;;21.31;100.00;101058.59;5063460;28;20056;-77
2021/08/08 05:55:28;;;;;;;30.95;28.85;;;;;;;21.50;100.00;101059.69;5067420;28;20056;-76
2021/08/08 05:57:55;;;;;;;28.75;26.50;;;;;;;21.57;100.00;101068.34;5064301;28;20048;-77
2021/08/08 06:00:24;;;;;;;30.35;28.15;;;;;;;21.70;100.00;101065.09;5064134;28;20130;-77
2021/08/08 06:02:51;;;;;;;31.77;29.45;;;;;;;22.04;100.00;101066.41;5065387;28;20056;-77
2021/08/08 06:05:18;;;;;;;30.50;28.42;;;;;;;22.11;100.00;101056.91;5066181;28;20143;-77
2021/08/08 06:07:44;;;;;;;28.95;26.85;;;;;;;22.43;100.00;101057.66;5068387;28;20546;-77
2021/08/08 06:10:12;;;;;;;29.02;27.00;;;;;;;22.58;100.00;101054.88;5068285;28;20482;-77
2021/08/08 06:12:38;;;;;;;29.73;27.40;;;;;;;22.73;100.00;101062.94;5069061;28;20113;-76
2021/08/08 06:15:06;;;;;;;29.10;27.00;;;;;;;22.91;100.00;101047.94;5061889;28;20053;-76
2021/08/08 06:17:34;;;;;;;27.15;25.15;;;;;;;23.35;100.00;101049.00;5061666;28;20059;-76
2021/08/08 06:20:01;;;;;;;26.33;24.33;;;;;;;23.58;100.00;101053.69;5064705;28;20468;-76
2021/08/08 06:22:27;;;;;;;26.38;24.67;;;;;;;23.70;100.00;101048.72;5067417;28;20603;-77
2021/08/08 06:24:54;;;;;;;25.30;23.45;;;;;;;23.91;100.00;101045.81;5067211;28;20120;-77
2021/08/08 06:27:21;;;;;;;26.55;24.55;;;;;;;24.19;100.00;101042.22;5073044;28;20044;-77
2021/08/08 06:29:48;;;;;;;27.60;25.67;;;;;;;24.42;100.00;101045.25;5072970;28;20044;-76
2021/08/08 06:32:14;;;;;;;26.95;25.00;;;;;;;24.32;100.00;101046.13;5072529;28;20098;-76
2021/08/08 06:34:43;;;;;;;29.58;27.35;;;;;;;24.46;100.00;101043.56;5073651;28;20075;-77
2021/08/08 06:37:09;;;;;;;29.98;27.98;;;;;;;24.54;100.00;101052.97;5069805;28;20052;-77
2021/08/08 06:39:36;;;;;;;31.10;29.20;;;;;;;24.87;100.00;101054.69;5064198;28;20051;-76
2021/08/08 06:42:03;;;;;;;27.00;25.02;;;;;;;24.86;100.00;101052.25;5071063;28;20051;-77
2021/08/08 06:44:30;;;;;;;29.77;27.67;;;;;;;25.10;100.00;101046.75;5064598;28;20087;-77
2021/08/08 06:46:57;;;;;;;28.40;26.10;;;;;;;25.24;100.00;101050.34;5072463;28;20052;-76
2021/08/08 06:49:24;;;;;;;29.70;27.90;;;;;;;25.18;100.00;101051.53;5073098;28;20109;-76
2021/08/08 06:51:52;;;;;;;28.65;26.58;;;;;;;25.51;100.00;101055.09;5070452;28;20366;-76
2021/08/08 06:54:18;;;;;;;29.30;27.20;;;;;;;25.69;100.00;101060.75;5063471;28;20053;-76
2021/08/08 06:56:45;;;;;;;30.17;28.20;;;;;;;25.88;100.00;101058.00;5072111;28;20075;-77
2021/08/08 06:59:12;;;;;;;27.00;25.20;;;;;;;25.72;100.00;101051.97;5063522;28;20053;-77
2021/08/08 07:01:39;;;;;;;25.63;23.63;;;;;;;25.72;100.00;101057.41;5072215;28;20048;-76
2021/08/08 07:04:05;;;;;;;25.90;24.10;;;;;;;25.81;100.00;101058.38;5065575;28;20052;-77
2021/08/08 07:06:32;;;;;;;26.83;24.55;;;;;;;26.03;100.00;101055.00;5056809;28;20045;-77
2021/08/08 07:09:01;;;;;;;26.38;24.58;;;;;;;26.48;100.00;101060.63;5063410;28;20057;-77
2021/08/08 07:11:28;;;;;;;25.90;24.02;;;;;;;26.82;94.81;101065.63;5072031;28;20588;-77
2021/08/08 07:13:56;;;;;;;25.55;23.73;;;;;;;26.72;90.00;101063.13;5061966;28;20049;-77
2021/08/08 07:16:22;;;;;;;25.73;23.83;;;;;;;26.87;89.83;101068.25;5061320;28;20045;-77
2021/08/08 07:18:50;;;;;;;25.63;23.60;;;;;;;27.05;83.34;101066.47;5067476;28;20485;-77
2021/08/08 07:21:16;;;;;;;25.92;24.02;;;;;;;27.21;76.43;101064.22;5054191;28;20049;-77
2021/08/08 07:23:43;;;;;;;26.08;24.27;;;;;;;27.28;85.49;101061.03;5070331;28;20121;-77
2021/08/08 07:26:11;;;;;;;25.25;23.30;;;;;;;27.22;88.27;101065.00;5072840;28;20053;-77
2021/08/08 07:28:38;;;;;;;25.38;23.45;;;;;;;27.42;88.00;101069.97;5066108;28;20445;-77
2021/08/08 07:31:05;;;;;;;27.10;25.10;;;;;;;27.64;77.72;101063.69;5063613;28;20451;-76
2021/08/08 07:33:31;;;;;;;27.30;25.30;;;;;;;27.78;72.57;101063.63;5067568;28;20117;-76
2021/08/08 07:35:58;;;;;;;28.42;26.23;;;;;;;27.93;88.55;101062.38;5072809;28;20056;-77
2021/08/08 07:38:25;;;;;;;26.60;24.60;;;;;;;28.11;81.75;101064.09;5060853;28;20118;-77
2021/08/08 07:40:51;;;;;;;30.50;28.45;;;;;;;28.37;71.72;101061.44;5060704;28;20053;-77
2021/08/08 07:43:20;;;;;;;27.60;25.50;;;;;;;28.26;74.61;101063.66;5067397;28;20060;-76
2021/08/08 07:45:46;;;;;;;29.70;27.63;;;;;;;28.34;73.70;101069.47;5059568;28;20049;-77
2021/08/08 07:48:13;;;;;;;28.20;26.50;;;;;;;28.31;64.40;101063.50;5069041;28;20114;-77
2021/08/08 07:50:40;;;;;;;28.00;26.20;;;;;;;28.22;69.71;101057.22;5072899;28;20045;-77
2021/08/08 07:53:07;;;;;;;25.83;24.13;;;;;;;28.38;66.17;101062.22;5072016;28;20052;-77
2021/08/08 07:55:33;;;;;;;28.25;26.40;;;;;;;28.34;63.23;101055.81;5062876;28;20554;-77
2021/08/08 07:58:00;;;;;;;26.60;24.77;;;;;;;28.75;64.97;101067.16;5072415;28;20048;-77
2021/08/08 08:00:28;;;;;;;26.17;24.23;;;;;;;28.56;54.90;101069.38;5070858;28;20109;-76
2021/08/08 08:02:55;;;;;;;25.23;23.52;;;;;;;28.86;57.86;101069.56;5066916;28;20546;-77
2021/08/08 08:05:22;;;;;;;25.10;23.30;;;;;;;28.87;61.42;101061.06;5068696;28;20056;-77
2021/08/08 08:07:48;;;;;;;25.40;23.50;;;;;;;29.02;55.19;101062.53;5075544;28;20122;-77
2021/08/08 08:10:15;;;;;;;26.23;24.33;;;;;;;28.96;57.56;101066.53;5074878;28;20106;-77
2021/08/08 08:12:42;;;;;;;26.10;24.40;;;;;;;28.84;56.35;101074.56;5066451;28;20048;-76
2021/08/08 08:15:10;;;;;;;26.48;24.50;;;;;;;29.04;58.00;101067.66;5065042;28;20052;-77
2021/08/08 08:17:38;;;;;;;26.20;24.40;;;;;;;29.33;60.98;101067.81;5063957;28;20058;-77
2021/08/08 08:20:05;;;;;;;25.35;23.65;;;;;;;29.15;53.18;101066.22;5063718;28;20059;-77
2021/08/08 08:22:32;;;;;;;26.98;24.98;;;;;;;29.32;57.05;101066.22;5068814;28;20110;-77
2021/08/08 08:24:59;;;;;;;27.63;25.50;;;;;;;29.40;74.33;101059.09;5066103;28;20057;-76
2021/08/08 08:27:25;;;;;;;27.77;25.98;;;;;;;29.85;61.43;101055.94;5068069;28;20049;-77
2021/08/08 08:29:52;;;;;;;28.40;26.00;;;;;;;29.82;62.62;101059.34;5066077;28;20059;-76
2021/08/08 08:32:19;;;;;;;25.77;23.88;;;;;;;29.36;74.93;101058.94;5072622;28;20061;-77
2021/08/08 08:34:47;;;;;;;26.95;24.73;;;;;;;29.93;53.47;101071.53;5067029;28;20052;-77
2021/08/08 08:37:13;;;;;;;26.38;24.63;;;;;;;29.70;48.84;101065.50;5070004;28;20045;-77
2021/08/08 08:39:41;;;;;;;25.42;23.73;;;;;;;29.61;48.18;101076.47;5072642;28;20067;-77
2021/08/08 08:42:10;;;;;;;25.67;23.88;;;;;;;29.78;49.54;101061.13;5064415;28;20049;-77
2021/08/08 08:44:37;;;;;;;25.88;24.08;;;;;;;29.72;62.80;101054.22;5067225;28;20048;-77
2021/08/08 08:47:05;;;;;;;28.70;26.52;;;;;;;29.46;80.54;101063.28;5069219;28;20170;-77
2021/08/08 08:49:32;;;;;;;29.13;26.85;;;;;;;30.02;55.38;101061.34;5079122;28;20113;-77
2021/08/08 08:52:05;;;;;;;29.17;27.10;;;;;;;30.29;53.81;101056.59;5075476;28;20041;-77
2021/08/08 08:54:33;;;;;;;28.30;26.40;;;;;;;29.98;48.67;101054.91;5065793;28;20051;-79
2021/08/08 08:57:00;;;;;;;27.13;25.13;;;;;;;30.12;45.53;101052.75;5072240;28;20045;-78
2021/08/08 08:59:28;;;;;;;27.52;25.42;;;;;;;30.17;51.58;101050.94;5064248;28;20060;-78
2021/08/08 09:01:55;;;;;;;26.83;25.00;;;;;;;30.56;48.31;101049.78;5064500;28;20114;-78
2021/08/08 09:04:22;;;;;;;27.60;25.67;;;;;;;30.63;45.27;101046.53;5064118;28;20060;-78
2021/08/08 09:06:49;;;;;;;24.80;22.80;;;;;;;30.44;48.33;101052.44;5074188;28;20390;-77
2021/08/08 09:09:17;;;;;;;25.30;23.60;;;;;;;30.21;65.94;101035.50;5072680;28;20045;-78
2021/08/08 09:11:47;;;;;;;24.67;22.88;;;;;;;30.49;48.27;101039.34;5064241;28;20056;-77
2021/08/08 09:14:16;;;;;;;25.70;23.70;;;;;;;30.91;47.98;101035.84;5064099;28;20400;-76
2021/08/08 09:16:44;;;;;;;26.13;24.27;;;;;;;31.06;43.26;101037.16;5065986;28;20091;-76
2021/08/08 09:19:18;;;;;;;27.70;25.58;;;;;;;30.73;41.86;101035.94;5063049;28;20451;-78
2021/08/08 09:21:45;;;;;;;26.73;24.83;;;;;;;30.91;43.09;101044.88;5071519;28;20441;-76
2021/08/08 09:24:26;;;;;;;25.40;23.70;;;;;;;30.68;43.41;101043.56;5062896;28;20492;-78
2021/08/08 09:27:01;;;;;;;25.25;23.45;;;;;;;30.65;51.81;101041.50;5067083;28;20624;-76
2021/08/08 09:29:28;;;;;;;25.02;23.23;;;;;;;30.81;54.24;101039.81;5071320;28;20060;-78
2021/08/08 09:31:56;;;;;;;25.90;23.90;;;;;;;31.10;42.62;101035.34;5067134;28;20048;-77
2021/08/08 09:34:24;;;;;;;26.70;24.70;;;;;;;31.59;44.82;101024.50;5071524;28;20542;-76
2021/08/08 09:36:52;;;;;;;26.42;24.52;;;;;;;30.96;50.30;101028.22;5071414;28;20122;-77
2021/08/08 09:39:41;;;;;;;25.75;23.85;;;;;;;31.47;50.10;101030.81;5064658;28;20052;-77
2021/08/08 09:42:13;;;;;;;25.13;23.00;;;;;;;31.85;41.50;101024.22;5071166;28;20119;-76
2021/08/08 09:44:51;;;;;;;25.05;23.05;;;;;;;31.83;42.85;101021.81;5067082;28;20455;-78
2021/08/08 09:47:18;;;;;;;25.15;23.27;;;;;;;32.00;39.74;101020.00;5073720;28;20120;-76
2021/08/08 09:49:54;;;;;;;26.42;24.63;;;;;;;31.69;38.43;101022.13;5074407;28;20056;-78
2021/08/08 09:52:22;;;;;;;26.20;24.40;;;;;;;31.87;42.74;101017.22;5072805;28;20040;-79
2021/08/08 09:54:50;;;;;;;28.70;26.80;;;;;;;31.80;40.59;101014.25;5070545;28;20052;-77
2021/08/08 09:57:17;;;;;;;26.42;24.55;;;;;;;31.93;40.87;101023.34;5064833;28;20040;-77
2021/08/08 09:59:48;;;;;;;25.98;24.27;;;;;;;32.25;40.36;101018.03;5073294;28;20114;-77
2021/08/08 10:02:19;;;;;;;27.55;25.75;;;;;;;31.99;39.08;101016.47;5070563;28;20135;-77
2021/08/08 10:04:46;;;;;;;26.53;24.63;;;;;;;31.58;38.82;101025.66;5062677;28;20500;-77
2021/08/08 10:07:16;;;;;;;25.73;23.80;;;;;;;32.08;36.77;101010.84;5062751;28;20052;-78
2021/08/08 10:09:44;;;;;;;26.95;24.95;;;;;;;32.27;35.78;101013.00;5069232;28;20128;-77
2021/08/08 10:12:30;;;;;;;26.80;24.90;;;;;;;32.84;36.39;101012.75;5065747;28;20469;-79
2021/08/08 10:14:58;;;;;;;24.20;22.30;;;;;;;32.89;38.30;101017.19;5062441;28;20469;-76
2021/08/08 10:17:27;;;;;;;24.38;22.63;;;;;;;32.61;38.59;101020.72;5061736;28;20107;-76
2021/08/08 10:19:55;;;;;;;25.42;23.45;;;;;;;33.03;37.16;101014.06;5064408;28;20135;-77
2021/08/08 10:22:24;;;;;;;27.80;25.90;;;;;;;33.44;38.94;101012.81;5061991;28;20133;-77
2021/08/08 10:24:57;;;;;;;28.42;26.50;;;;;;;32.87;39.80;101013.22;5067189;28;20040;-77
2021/08/08 10:27:26;;;;;;;28.45;26.65;;;;;;;32.48;35.95;101010.13;5071306;28;20453;-77
2021/08/08 10:29:56;;;;;;;25.73;24.02;;;;;;;33.02;34.92;101009.72;5063908;28;20049;-76
2021/08/08 10:32:25;;;;;;;25.40;23.70;;;;;;;33.74;36.32;101012.41;5061195;28;20374;-77
2021/08/08 10:34:51;;;;;;;28.17;26.27;;;;;;;33.57;32.50;101001.75;5072401;28;20473;-77
2021/08/08 10:37:23;;;;;;;28.42;26.73;;;;;;;33.15;34.26;101005.75;5071898;28;20049;-77
2021/08/08 10:39:51;;;;;;;29.42;27.58;;;;;;;32.39;34.84;101002.78;5071650;28;20076;-78
2021/08/08 10:42:18;;;;;;;28.35;26.63;;;;;;;33.60;32.84;100999.06;5069625;28;20040;-77
2021/08/08 10:44:47;;;;;;;26.13;24.38;;;;;;;33.49;33.21;100992.47;5063497;28;20443;-78
2021/08/08 10:47:25;;;;;;;25.65;23.85;;;;;;;33.55;33.39;100998.53;5070383;28;20128;-77
2021/08/08 10:49:52;;;;;;;25.80;23.90;;;;;;;34.31;32.96;100990.88;5061992;28;20480;-77
2021/08/08 10:52:20;;;;;;;25.50;23.77;;;;;;;33.71;34.26;100986.38;5058605;28;20477;-77
2021/08/08 10:54:48;;;;;;;26.40;24.80;;;;;;;33.58;34.51;100995.88;5068018;28;20055;-78
2021/08/08 10:57:16;;;;;;;26.90;25.20;;;;;;;33.43;36.83;101000.19;5070321;28;20121;-77
2021/08/08 10:59:44;;;;;;;27.48;25.77;;;;;;;33.46;37.34;100985.69;5063750;28;20049;-77
2021/08/08 11:02:14;;;;;;;26.33;24.63;;;;;;;33.60;34.55;100987.25;5071741;28;20140;-77
2021/08/08 11:04:42;;;;;;;26.35;24.55;;;;;;;33.99;32.56;100982.69;5062174;28;20095;-77
2021/08/08 11:07:11;;;;;;;26.17;24.58;;;;;;;34.10;32.46;100983.75;5058985;28;20131;-78